Terminal Aerodrome Forecast
Issued by NWS

Home | Current Version | Previous Version | Text Only | Print | Product List | Glossary On
Versions: 1 2 3 4 5 6 7 8 9 10 11 12 13 14 15 16 17 18 19 20 21
000
FTUS41 KOKX 240800 AAA
TAFSWF
TAF AMD
KSWF 240840Z 2409/2512 34005KT 6SM BR BKN040
     FM241300 35009KT P6SM SCT040 SCT150 SCT250
     FM242100 34008KT P6SM SCT050 SCT250
     FM250200 VRB03KT P6SM FEW050
      AMD NOT SKED=

USA.gov is the U.S. government's official web portal to all federal, state and local government web resources and services.